Stayner, Canada
Current Conditions -  °F | °C
As of 4:28 PM on Friday 28 Nov 2014 (Local Time) from CYBN Reporting Station
Broken Clouds Broken Clouds  
Wind Chill: 21°   Ceiling: 3200
Heat Index: 21°   Visibility: 9mi
Dew Point: 18°   Wind: 0mph
Humidity: 86%   Direction: NA
Pressure: 30.17"   Gusts: NA
Location:  44.42°N, 80.09°W
Report Text: CYBN 282128Z AUTO 00000KT 9SM BKN032 BKN091 M06/M08 A3017
Loading
Personal Weather Stations






























Interactive Weather Map New forecast layout! Learn more

10-Day Weather Forecast

Advertisements
Track Severe Weather on mobile